createdAt,value
2018-03-01T00:00:20.616Z,1004.81
2018-03-01T00:01:20.582Z,1004.95
2018-03-01T00:02:41.530Z,1004.92
2018-03-01T00:03:20.551Z,1004.93
2018-03-01T00:04:20.543Z,1004.99
2018-03-01T00:05:20.509Z,1004.99
2018-03-01T00:06:20.555Z,1004.93
2018-03-01T00:07:20.494Z,1004.94
2018-03-01T00:08:41.454Z,1004.89
2018-03-01T00:09:20.474Z,1004.91
2018-03-01T00:10:21.148Z,1004.89
2018-03-01T00:11:20.450Z,1004.78
2018-03-01T00:12:20.443Z,1004.83
2018-03-01T00:13:20.934Z,1004.81
2018-03-01T00:14:41.366Z,1004.74
2018-03-01T00:15:20.385Z,1004.78
2018-03-01T00:16:21.411Z,1004.76
2018-03-01T00:17:20.370Z,1004.67
2018-03-01T00:18:20.302Z,1004.67
2018-03-01T00:19:20.349Z,1004.62
2018-03-01T00:20:41.288Z,1004.58
2018-03-01T00:21:20.330Z,1004.61
2018-03-01T00:22:20.286Z,1004.49
2018-03-01T00:23:20.241Z,1004.57
2018-03-01T00:24:20.216Z,1004.51
2018-03-01T00:25:20.207Z,1004.43
2018-03-01T00:26:41.185Z,1004.31
2018-03-01T00:27:20.173Z,1004.22
2018-03-01T00:28:20.170Z,1004.15
2018-03-01T00:29:20.151Z,1004.09
2018-03-01T00:30:20.133Z,1004.05
2018-03-01T00:31:20.125Z,1004.08
2018-03-01T00:32:41.128Z,1004.07
2018-03-01T00:33:20.087Z,1004.05
2018-03-01T00:34:20.081Z,1004.08
2018-03-01T00:35:20.083Z,1004.02
2018-03-01T00:36:20.046Z,1004.03
2018-03-01T00:37:20.024Z,1004.08
2018-03-01T00:38:41.017Z,1004.18
2018-03-01T00:39:20.015Z,1004.20
2018-03-01T00:40:19.993Z,1004.39
2018-03-01T00:41:19.985Z,1004.38
2018-03-01T00:42:19.961Z,1004.45
2018-03-01T00:43:19.957Z,1004.43
2018-03-01T00:44:40.951Z,1004.46
2018-03-01T00:45:19.919Z,1004.43
2018-03-01T00:46:19.899Z,1004.44
2018-03-01T00:47:19.881Z,1004.52
2018-03-01T00:48:19.884Z,1004.52
2018-03-01T00:49:19.853Z,1004.54
2018-03-01T00:50:40.864Z,1004.67
2018-03-01T00:51:19.829Z,1004.71
2018-03-01T00:52:19.818Z,1004.71
2018-03-01T00:53:19.807Z,1004.71
2018-03-01T00:54:19.805Z,1004.66
2018-03-01T00:55:19.770Z,1004.63
2018-03-01T00:56:40.800Z,1004.65
2018-03-01T00:57:19.762Z,1004.71
2018-03-01T00:58:19.730Z,1004.68
2018-03-01T00:59:19.740Z,1004.67
2018-03-01T01:00:19.716Z,1004.71
2018-03-01T01:01:19.698Z,1004.68
2018-03-01T01:02:40.713Z,1004.62
2018-03-01T01:03:20.309Z,1004.61
2018-03-01T01:04:19.653Z,1004.67
2018-03-01T01:05:19.646Z,1004.66
2018-03-01T01:06:19.632Z,1004.71
2018-03-01T01:07:19.618Z,1004.76
2018-03-01T01:08:40.678Z,1004.72
2018-03-01T01:09:19.568Z,1004.71
2018-03-01T01:10:19.577Z,1004.69
2018-03-01T01:11:19.547Z,1004.63
2018-03-01T01:12:19.605Z,1004.61
2018-03-01T01:13:19.529Z,1004.66
2018-03-01T01:14:40.516Z,1004.57
2018-03-01T01:15:19.486Z,1004.63
2018-03-01T01:16:19.495Z,1004.55
2018-03-01T01:17:19.473Z,1004.51
2018-03-01T01:18:19.441Z,1004.43
2018-03-01T01:19:19.441Z,1004.41
2018-03-01T01:20:40.447Z,1004.34
2018-03-01T01:21:19.431Z,1004.31
2018-03-01T01:22:19.385Z,1004.36
2018-03-01T01:23:19.396Z,1004.29
2018-03-01T01:24:19.412Z,1004.33
2018-03-01T01:25:19.367Z,1004.29
2018-03-01T01:26:41.103Z,1004.27
2018-03-01T01:27:19.334Z,1004.26
2018-03-01T01:28:19.306Z,1004.25
2018-03-01T01:29:19.312Z,1004.24
2018-03-01T01:30:19.286Z,1004.20
2018-03-01T01:31:19.268Z,1004.14
2018-03-01T01:32:40.271Z,1004.19
2018-03-01T01:33:19.239Z,1004.16
2018-03-01T01:34:19.235Z,1004.15
2018-03-01T01:35:19.220Z,1004.13
2018-03-01T01:36:19.207Z,1004.14
2018-03-01T01:37:19.198Z,1004.11
2018-03-01T01:38:40.192Z,1004.13
2018-03-01T01:39:19.160Z,1004.16
2018-03-01T01:40:19.166Z,1004.11
2018-03-01T01:41:19.129Z,1004.08
2018-03-01T01:42:19.128Z,1004.07
2018-03-01T01:43:19.854Z,1004.08
2018-03-01T01:44:40.095Z,1004.04
2018-03-01T01:45:19.101Z,1004.01
2018-03-01T01:46:19.059Z,1003.94
2018-03-01T01:47:19.046Z,1003.98
2018-03-01T01:48:19.033Z,1003.91
2018-03-01T01:49:19.032Z,1003.90
2018-03-01T01:50:41.032Z,1003.87
2018-03-01T01:51:19.002Z,1003.88
2018-03-01T01:52:18.968Z,1003.88
2018-03-01T01:53:18.957Z,1003.96
2018-03-01T01:54:18.956Z,1003.94
2018-03-01T01:55:18.941Z,1003.88
2018-03-01T01:56:39.987Z,1004.01
2018-03-01T01:57:19.662Z,1003.94
2018-03-01T01:58:18.904Z,1003.93
2018-03-01T01:59:18.897Z,1003.93
2018-03-01T02:00:18.877Z,1003.96
2018-03-01T02:01:18.858Z,1003.97
2018-03-01T02:02:39.840Z,1003.91
2018-03-01T02:03:18.832Z,1003.86
2018-03-01T02:04:18.839Z,1003.84
2018-03-01T02:05:18.802Z,1003.86
2018-03-01T02:06:18.781Z,1003.80
2018-03-01T02:07:18.780Z,1003.81
2018-03-01T02:08:39.772Z,1003.81
2018-03-01T02:09:18.748Z,1003.72
2018-03-01T02:10:18.736Z,1003.67
2018-03-01T02:11:18.738Z,1003.65
2018-03-01T02:12:18.706Z,1003.63
2018-03-01T02:13:18.700Z,1003.56
2018-03-01T02:14:39.674Z,1003.54
2018-03-01T02:15:18.649Z,1003.55
2018-03-01T02:16:18.653Z,1003.51
2018-03-01T02:17:18.651Z,1003.54
2018-03-01T02:18:18.614Z,1003.52
2018-03-01T02:19:18.640Z,1003.44
2018-03-01T02:20:39.589Z,1003.47
2018-03-01T02:21:18.587Z,1003.46
2018-03-01T02:22:18.555Z,1003.37
2018-03-01T02:23:18.550Z,1003.32
2018-03-01T02:24:18.546Z,1003.35
2018-03-01T02:25:18.522Z,1003.26
2018-03-01T02:26:39.506Z,1003.25
2018-03-01T02:27:18.487Z,1003.17
2018-03-01T02:28:18.464Z,1003.21
2018-03-01T02:29:18.472Z,1003.20
2018-03-01T02:30:18.447Z,1003.23
2018-03-01T02:31:18.432Z,1003.24
2018-03-01T02:32:39.418Z,1003.29
2018-03-01T02:33:18.403Z,1003.30
2018-03-01T02:34:18.397Z,1003.26
2018-03-01T02:35:18.388Z,1003.25
2018-03-01T02:36:18.353Z,1003.28
2018-03-01T02:37:18.346Z,1003.28
2018-03-01T02:38:39.347Z,1003.20
2018-03-01T02:39:18.327Z,1003.21
2018-03-01T02:40:18.305Z,1003.17
2018-03-01T02:41:18.281Z,1003.21
2018-03-01T02:42:18.277Z,1003.21
2018-03-01T02:43:18.287Z,1003.15
2018-03-01T02:44:39.255Z,1003.14
2018-03-01T02:45:18.263Z,1003.06
2018-03-01T02:46:18.222Z,1003.02
2018-03-01T02:47:18.933Z,1002.98
2018-03-01T02:48:18.196Z,1003.01
2018-03-01T02:49:18.190Z,1003.01
2018-03-01T02:50:40.998Z,1002.96
2018-03-01T02:51:18.157Z,1003.02
2018-03-01T02:52:18.133Z,1003.02
2018-03-01T02:53:18.138Z,1003.08
2018-03-01T02:54:18.132Z,1002.97
2018-03-01T02:55:18.105Z,1002.97
2018-03-01T02:56:39.093Z,1002.93
2018-03-01T02:57:18.589Z,1002.91
2018-03-01T02:58:18.057Z,1002.90
2018-03-01T02:59:18.035Z,1002.90
2018-03-01T03:00:18.036Z,1002.87
2018-03-01T03:01:18.024Z,1002.81
2018-03-01T03:02:39.847Z,1002.78
2018-03-01T03:03:17.994Z,1002.75
2018-03-01T03:04:17.976Z,1002.69
2018-03-01T03:05:17.968Z,1002.67
2018-03-01T03:06:17.948Z,1002.64
2018-03-01T03:07:17.930Z,1002.66
2018-03-01T03:08:38.903Z,1002.63
2018-03-01T03:09:17.910Z,1002.58
2018-03-01T03:10:17.883Z,1002.56
2018-03-01T03:11:17.887Z,1002.52
2018-03-01T03:12:17.858Z,1002.50
2018-03-01T03:13:17.850Z,1002.51
2018-03-01T03:14:38.828Z,1002.45
2018-03-01T03:15:17.821Z,1002.49
2018-03-01T03:16:17.804Z,1002.51
2018-03-01T03:17:17.780Z,1002.50
2018-03-01T03:18:17.771Z,1002.56
2018-03-01T03:19:17.751Z,1002.51
2018-03-01T03:20:38.752Z,1002.56
2018-03-01T03:21:17.736Z,1002.55
2018-03-01T03:22:17.693Z,1002.51
2018-03-01T03:23:17.709Z,1002.50
2018-03-01T03:24:17.695Z,1002.45
2018-03-01T03:25:17.686Z,1002.45
2018-03-01T03:26:38.682Z,1002.47
2018-03-01T03:27:17.638Z,1002.48
2018-03-01T03:28:17.649Z,1002.51
2018-03-01T03:29:17.623Z,1002.50
2018-03-01T03:30:17.602Z,1002.53
2018-03-01T03:31:17.591Z,1002.53
2018-03-01T03:32:38.586Z,1002.45
2018-03-01T03:33:17.584Z,1002.49
2018-03-01T03:34:17.558Z,1002.49
2018-03-01T03:35:17.539Z,1002.49
2018-03-01T03:36:17.499Z,1002.50
2018-03-01T03:37:17.502Z,1002.46
2018-03-01T03:38:38.545Z,1002.44
2018-03-01T03:39:17.489Z,1002.45
2018-03-01T03:40:17.458Z,1002.40
2018-03-01T03:41:17.449Z,1002.39
2018-03-01T03:42:17.444Z,1002.43
2018-03-01T03:43:17.413Z,1002.42
2018-03-01T03:44:38.440Z,1002.36
2018-03-01T03:45:17.386Z,1002.32
2018-03-01T03:46:17.379Z,1002.31
2018-03-01T03:47:17.355Z,1002.21
2018-03-01T03:48:17.356Z,1002.20
2018-03-01T03:49:17.342Z,1002.25
2018-03-01T03:50:38.394Z,1002.22
2018-03-01T03:51:17.310Z,1002.24
2018-03-01T03:52:17.288Z,1002.23
2018-03-01T03:53:17.280Z,1002.31
2018-03-01T03:54:17.268Z,1002.27
2018-03-01T03:55:17.257Z,1002.26
2018-03-01T03:56:38.318Z,1002.23
2018-03-01T03:57:17.228Z,1002.20
2018-03-01T03:58:17.219Z,1002.16
2018-03-01T03:59:17.199Z,1002.16
2018-03-01T04:00:17.178Z,1002.15
2018-03-01T04:01:17.160Z,1002.11
2018-03-01T04:02:38.158Z,1002.15
2018-03-01T04:03:17.127Z,1002.13
2018-03-01T04:04:17.115Z,1002.14
2018-03-01T04:05:17.112Z,1002.09
2018-03-01T04:06:17.088Z,1002.10
2018-03-01T04:07:17.110Z,1002.11
2018-03-01T04:08:38.076Z,1002.06
2018-03-01T04:09:17.057Z,1002.03
2018-03-01T04:10:17.902Z,1002.06
2018-03-01T04:11:17.029Z,1002.08
2018-03-01T04:12:17.541Z,1002.09
2018-03-01T04:13:16.999Z,1002.02
2018-03-01T04:14:37.977Z,1002.04
2018-03-01T04:15:16.978Z,1002.04
2018-03-01T04:16:16.949Z,1001.97
2018-03-01T04:17:16.964Z,1001.94
2018-03-01T04:18:16.912Z,1001.92
2018-03-01T04:19:16.917Z,1001.89
2018-03-01T04:20:37.912Z,1001.87
2018-03-01T04:21:16.880Z,1001.80
2018-03-01T04:22:16.868Z,1001.78
2018-03-01T04:23:16.883Z,1001.73
2018-03-01T04:24:16.845Z,1001.76
2018-03-01T04:25:16.829Z,1001.77
2018-03-01T04:26:37.828Z,1001.72
2018-03-01T04:27:16.803Z,1001.75
2018-03-01T04:28:16.792Z,1001.73
2018-03-01T04:29:16.773Z,1001.68
2018-03-01T04:30:16.753Z,1001.71
2018-03-01T04:31:16.740Z,1001.71
2018-03-01T04:32:37.732Z,1001.70
2018-03-01T04:33:16.730Z,1001.68
2018-03-01T04:34:16.702Z,1001.65
2018-03-01T04:35:18.384Z,1001.70
2018-03-01T04:36:16.677Z,1001.70
2018-03-01T04:37:16.665Z,1001.62
2018-03-01T04:38:37.630Z,1001.58
2018-03-01T04:39:17.340Z,1001.58
2018-03-01T04:40:16.628Z,1001.63
2018-03-01T04:41:16.621Z,1001.59
2018-03-01T04:42:16.585Z,1001.54
2018-03-01T04:43:17.884Z,1001.55
2018-03-01T04:44:37.563Z,1001.56
2018-03-01T04:45:16.578Z,1001.54
2018-03-01T04:46:16.540Z,1001.54
2018-03-01T04:47:16.517Z,1001.55
2018-03-01T04:48:16.498Z,1001.61
2018-03-01T04:49:16.489Z,1001.58
2018-03-01T04:50:37.471Z,1001.55
2018-03-01T04:51:16.465Z,1001.55
2018-03-01T04:52:16.451Z,1001.65
2018-03-01T04:53:16.442Z,1001.57
2018-03-01T04:54:16.441Z,1001.60
2018-03-01T04:55:16.396Z,1001.62
2018-03-01T04:56:37.409Z,1001.60
2018-03-01T04:57:16.388Z,1001.63
2018-03-01T04:58:16.357Z,1001.54
2018-03-01T04:59:16.348Z,1001.55
2018-03-01T05:00:16.419Z,1001.53
2018-03-01T05:01:16.302Z,1001.54
2018-03-01T05:02:37.300Z,1001.55
2018-03-01T05:03:16.292Z,1001.55
2018-03-01T05:04:17.035Z,1001.55
2018-03-01T05:05:16.264Z,1001.53
2018-03-01T05:06:16.249Z,1001.60
2018-03-01T05:07:16.250Z,1001.55
2018-03-01T05:08:37.222Z,1001.58
2018-03-01T05:09:16.197Z,1001.56
2018-03-01T05:10:16.196Z,1001.51
2018-03-01T05:11:16.179Z,1001.56
2018-03-01T05:12:16.162Z,1001.49
2018-03-01T05:13:16.146Z,1001.51
2018-03-01T05:14:37.122Z,1001.50
2018-03-01T05:15:17.005Z,1001.47
2018-03-01T05:16:16.105Z,1001.54
2018-03-01T05:17:16.089Z,1001.50
2018-03-01T05:18:16.086Z,1001.53
2018-03-01T05:19:16.061Z,1001.53
2018-03-01T05:20:37.059Z,1001.58
2018-03-01T05:21:16.049Z,1001.57
2018-03-01T05:22:16.033Z,1001.58
2018-03-01T05:23:16.024Z,1001.52
2018-03-01T05:24:15.988Z,1001.54
2018-03-01T05:25:15.979Z,1001.51
2018-03-01T05:26:36.967Z,1001.50
2018-03-01T05:27:15.957Z,1001.56
2018-03-01T05:28:15.932Z,1001.59
2018-03-01T05:29:15.942Z,1001.53
2018-03-01T05:30:16.588Z,1001.57
2018-03-01T05:31:15.905Z,1001.58
2018-03-01T05:32:36.894Z,1001.57
2018-03-01T05:33:15.888Z,1001.60
2018-03-01T05:34:15.855Z,1001.55
2018-03-01T05:35:15.847Z,1001.57
2018-03-01T05:36:15.826Z,1001.58
2018-03-01T05:37:15.812Z,1001.54
2018-03-01T05:38:36.812Z,1001.52
2018-03-01T05:39:15.791Z,1001.52
2018-03-01T05:40:15.783Z,1001.52
2018-03-01T05:41:15.765Z,1001.50
2018-03-01T05:42:15.753Z,1001.48
2018-03-01T05:43:15.735Z,1001.51
2018-03-01T05:44:36.727Z,1001.43
2018-03-01T05:45:15.709Z,1001.42
2018-03-01T05:46:15.696Z,1001.42
2018-03-01T05:47:15.666Z,1001.45
2018-03-01T05:48:15.671Z,1001.48
2018-03-01T05:49:15.643Z,1001.41
2018-03-01T05:50:36.644Z,1001.47
2018-03-01T05:51:15.611Z,1001.44
2018-03-01T05:52:15.615Z,1001.47
2018-03-01T05:53:15.588Z,1001.48
2018-03-01T05:54:15.558Z,1001.45
2018-03-01T05:55:15.558Z,1001.41
2018-03-01T05:56:36.554Z,1001.41
2018-03-01T05:57:15.549Z,1001.43
2018-03-01T05:58:15.524Z,1001.43
2018-03-01T05:59:15.508Z,1001.42
2018-03-01T06:00:15.537Z,1001.42
2018-03-01T06:01:15.479Z,1001.44
2018-03-01T06:02:36.526Z,1001.42
2018-03-01T06:03:15.453Z,1001.47
2018-03-01T06:04:15.438Z,1001.40
2018-03-01T06:05:15.432Z,1001.43
2018-03-01T06:06:15.397Z,1001.46
2018-03-01T06:07:15.394Z,1001.51
2018-03-01T06:08:36.388Z,1001.51
2018-03-01T06:09:15.370Z,1001.51
2018-03-01T06:10:15.343Z,1001.54
2018-03-01T06:11:15.344Z,1001.48
2018-03-01T06:12:15.320Z,1001.45
2018-03-01T06:13:15.318Z,1001.44
2018-03-01T06:14:36.305Z,1001.46
2018-03-01T06:15:15.289Z,1001.46
2018-03-01T06:16:15.273Z,1001.46
2018-03-01T06:17:15.250Z,1001.44
2018-03-01T06:18:15.240Z,1001.52
2018-03-01T06:19:15.225Z,1001.53
2018-03-01T06:20:36.222Z,1001.54
2018-03-01T06:21:15.214Z,1001.50
2018-03-01T06:22:15.196Z,1001.51
2018-03-01T06:23:15.160Z,1001.47
2018-03-01T06:24:15.170Z,1001.53
2018-03-01T06:25:16.030Z,1001.52
2018-03-01T06:26:36.124Z,1001.54
2018-03-01T06:27:15.119Z,1001.49
2018-03-01T06:28:15.107Z,1001.52
2018-03-01T06:29:15.077Z,1001.57
2018-03-01T06:30:16.432Z,1001.54
2018-03-01T06:31:15.053Z,1001.55
2018-03-01T06:32:36.056Z,1001.54
2018-03-01T06:33:15.025Z,1001.49
2018-03-01T06:34:15.012Z,1001.54
2018-03-01T06:35:15.881Z,1001.50
2018-03-01T06:36:14.972Z,1001.52
2018-03-01T06:37:14.974Z,1001.56
2018-03-01T06:38:35.969Z,1001.53
2018-03-01T06:39:14.950Z,1001.54
2018-03-01T06:40:14.922Z,1001.56
2018-03-01T06:41:14.911Z,1001.48
2018-03-01T06:42:14.889Z,1001.50
2018-03-01T06:43:14.907Z,1001.47
2018-03-01T06:44:35.869Z,1001.47
2018-03-01T06:45:14.854Z,1001.41
2018-03-01T06:46:14.843Z,1001.43
2018-03-01T06:47:14.845Z,1001.32
2018-03-01T06:48:14.813Z,1001.34
2018-03-01T06:49:14.799Z,1001.35
2018-03-01T06:50:35.794Z,1001.37
2018-03-01T06:51:14.762Z,1001.42
2018-03-01T06:52:14.755Z,1001.38
2018-03-01T06:53:14.738Z,1001.40
2018-03-01T06:54:14.739Z,1001.37
2018-03-01T06:55:14.726Z,1001.36
2018-03-01T06:56:35.729Z,1001.33
2018-03-01T06:57:14.679Z,1001.28
2018-03-01T06:58:15.608Z,1001.25
2018-03-01T06:59:14.657Z,1001.26
2018-03-01T07:00:14.647Z,1001.25
2018-03-01T07:01:14.641Z,1001.29
2018-03-01T07:02:35.638Z,1001.28
2018-03-01T07:03:14.609Z,1001.22
2018-03-01T07:04:14.571Z,1001.20
2018-03-01T07:05:14.606Z,1001.19
2018-03-01T07:06:14.571Z,1001.25
2018-03-01T07:07:14.540Z,1001.24
2018-03-01T07:08:35.543Z,1001.13
2018-03-01T07:09:14.527Z,1001.15
2018-03-01T07:10:14.508Z,1001.14
2018-03-01T07:11:14.483Z,1001.19
2018-03-01T07:12:14.500Z,1001.16
2018-03-01T07:13:14.454Z,1001.16
2018-03-01T07:14:35.458Z,1001.17
2018-03-01T07:15:14.428Z,1001.22
2018-03-01T07:16:14.415Z,1001.17
2018-03-01T07:17:14.425Z,1001.14
2018-03-01T07:18:14.394Z,1001.09
2018-03-01T07:19:14.381Z,1001.09
2018-03-01T07:20:35.362Z,1001.10
2018-03-01T07:21:14.344Z,1001.10
2018-03-01T07:22:14.340Z,1001.10
2018-03-01T07:23:14.328Z,1001.06
2018-03-01T07:24:14.311Z,1001.10
2018-03-01T07:25:14.289Z,1001.18
2018-03-01T07:26:35.282Z,1001.13
2018-03-01T07:27:14.268Z,1001.16
2018-03-01T07:28:14.291Z,1001.14
2018-03-01T07:29:14.231Z,1001.14
2018-03-01T07:30:14.219Z,1001.18
2018-03-01T07:31:14.212Z,1001.14
2018-03-01T07:32:35.208Z,1001.12
2018-03-01T07:33:14.179Z,1001.09
2018-03-01T07:34:14.163Z,1001.05
2018-03-01T07:35:14.172Z,1001.06
2018-03-01T07:36:14.140Z,1000.99
2018-03-01T07:37:14.130Z,1000.98
2018-03-01T07:38:35.116Z,1001.01
2018-03-01T07:39:14.086Z,1001.00
2018-03-01T07:40:14.083Z,1000.99
2018-03-01T07:41:14.079Z,1001.04
2018-03-01T07:42:14.086Z,1000.97
2018-03-01T07:43:14.084Z,1000.92
2018-03-01T07:44:35.027Z,1000.95
2018-03-01T07:45:14.053Z,1000.90
2018-03-01T07:46:14.019Z,1000.90
2018-03-01T07:47:13.976Z,1000.92
2018-03-01T07:48:14.958Z,1000.88
2018-03-01T07:49:13.996Z,1000.90
2018-03-01T07:50:34.952Z,1000.90
2018-03-01T07:51:13.937Z,1000.89
2018-03-01T07:52:13.966Z,1000.86
2018-03-01T07:53:13.946Z,1000.84
2018-03-01T07:54:13.945Z,1000.85
2018-03-01T07:55:14.432Z,1000.86
2018-03-01T07:56:34.855Z,1000.89
2018-03-01T07:57:13.917Z,1000.85
2018-03-01T07:58:13.854Z,1000.87
2018-03-01T07:59:13.848Z,1000.85
2018-03-01T08:00:13.821Z,1000.85
2018-03-01T08:01:13.780Z,1000.83
2018-03-01T08:02:34.788Z,1000.82
2018-03-01T08:03:14.457Z,1000.85
2018-03-01T08:04:14.393Z,1000.77
2018-03-01T08:05:13.747Z,1000.85
2018-03-01T08:06:13.707Z,1000.81
2018-03-01T08:07:13.702Z,1000.81
2018-03-01T08:08:34.687Z,1000.81
2018-03-01T08:09:13.681Z,1000.78
2018-03-01T08:10:13.690Z,1000.78
2018-03-01T08:11:13.656Z,1000.76
2018-03-01T08:12:13.622Z,1000.82
2018-03-01T08:13:13.621Z,1000.75
2018-03-01T08:14:34.599Z,1000.75
2018-03-01T08:15:13.578Z,1000.74
2018-03-01T08:16:13.576Z,1000.66
2018-03-01T08:17:13.576Z,1000.65
2018-03-01T08:18:13.555Z,1000.70
2018-03-01T08:19:13.547Z,1000.66
2018-03-01T08:20:34.514Z,1000.64
2018-03-01T08:21:13.514Z,1000.63
2018-03-01T08:22:13.489Z,1000.62
2018-03-01T08:23:13.488Z,1000.67
2018-03-01T08:24:13.464Z,1000.64
2018-03-01T08:25:13.485Z,1000.60
2018-03-01T08:26:34.451Z,1000.60
2018-03-01T08:27:13.437Z,1000.59
2018-03-01T08:28:13.427Z,1000.56
2018-03-01T08:29:14.169Z,1000.66
2018-03-01T08:30:13.381Z,1000.61
2018-03-01T08:31:13.380Z,1000.63
2018-03-01T08:32:35.235Z,1000.62
2018-03-01T08:33:13.363Z,1000.63
2018-03-01T08:34:13.345Z,1000.62
2018-03-01T08:35:13.324Z,1000.66
2018-03-01T08:36:13.309Z,1000.64
2018-03-01T08:37:13.303Z,1000.59
2018-03-01T08:38:34.288Z,1000.57
2018-03-01T08:39:13.277Z,1000.56
2018-03-01T08:40:13.265Z,1000.54
2018-03-01T08:41:13.249Z,1000.55
2018-03-01T08:42:13.229Z,1000.61
2018-03-01T08:43:13.209Z,1000.55
2018-03-01T08:44:34.267Z,1000.61
2018-03-01T08:45:13.183Z,1000.59
2018-03-01T08:46:14.024Z,1000.56
2018-03-01T08:47:13.149Z,1000.46
2018-03-01T08:48:13.148Z,1000.47
2018-03-01T08:49:13.132Z,1000.45
2018-03-01T08:50:34.158Z,1000.45
2018-03-01T08:51:13.096Z,1000.44
2018-03-01T08:52:13.096Z,1000.47
2018-03-01T08:53:13.084Z,1000.47
2018-03-01T08:54:13.063Z,1000.43
2018-03-01T08:55:13.049Z,1000.42
2018-03-01T08:56:34.079Z,1000.54
2018-03-01T08:57:13.038Z,1000.47
2018-03-01T08:58:13.021Z,1000.47
2018-03-01T08:59:12.991Z,1000.49
2018-03-01T09:00:12.975Z,1000.47
2018-03-01T09:01:12.974Z,1000.45
2018-03-01T09:02:34.003Z,1000.48
2018-03-01T09:03:12.946Z,1000.44
2018-03-01T09:04:12.941Z,1000.47
2018-03-01T09:05:12.911Z,1000.41
2018-03-01T09:06:12.906Z,1000.40
2018-03-01T09:07:12.898Z,1000.42
2018-03-01T09:08:33.946Z,1000.42
2018-03-01T09:09:12.862Z,1000.41
2018-03-01T09:10:12.874Z,1000.39
2018-03-01T09:11:12.853Z,1000.39
2018-03-01T09:12:12.825Z,1000.35
2018-03-01T09:13:12.825Z,1000.34
2018-03-01T09:14:33.821Z,1000.34
2018-03-01T09:15:12.783Z,1000.31
2018-03-01T09:16:13.513Z,1000.25
2018-03-01T09:17:12.762Z,1000.28
2018-03-01T09:18:12.754Z,1000.27
2018-03-01T09:19:12.731Z,1000.24
2018-03-01T09:20:34.383Z,1000.19
2018-03-01T09:21:12.701Z,1000.22
2018-03-01T09:22:12.705Z,1000.21
2018-03-01T09:23:12.679Z,1000.17
2018-03-01T09:24:12.669Z,1000.15
2018-03-01T09:25:12.668Z,1000.14
2018-03-01T09:26:33.659Z,1000.13
2018-03-01T09:27:12.635Z,1000.11
2018-03-01T09:28:12.618Z,1000.15
2018-03-01T09:29:12.606Z,1000.10
2018-03-01T09:30:12.585Z,1000.08
2018-03-01T09:31:12.587Z,1000.13
2018-03-01T09:32:34.560Z,1000.05
2018-03-01T09:33:12.570Z,1000.00
2018-03-01T09:34:13.242Z,999.98
2018-03-01T09:35:12.508Z,999.89
2018-03-01T09:36:12.523Z,999.92
2018-03-01T09:37:12.555Z,999.85
2018-03-01T09:38:33.486Z,999.82
2018-03-01T09:39:12.477Z,999.80
2018-03-01T09:40:12.463Z,999.85
2018-03-01T09:41:12.466Z,999.82
2018-03-01T09:42:12.442Z,999.83
2018-03-01T09:43:12.434Z,999.82
2018-03-01T09:44:33.423Z,999.83
2018-03-01T09:45:12.415Z,999.85
2018-03-01T09:46:12.389Z,999.80
2018-03-01T09:47:12.374Z,999.80
2018-03-01T09:48:12.374Z,999.80
2018-03-01T09:49:12.366Z,999.76
2018-03-01T09:50:33.330Z,999.76
2018-03-01T09:51:12.317Z,999.81
2018-03-01T09:52:12.307Z,999.80
2018-03-01T09:53:12.294Z,999.84
2018-03-01T09:54:12.287Z,999.86
2018-03-01T09:55:12.284Z,999.83
2018-03-01T09:56:33.274Z,999.81
2018-03-01T09:57:12.240Z,999.81
2018-03-01T09:58:12.233Z,999.73
2018-03-01T09:59:12.231Z,999.61
2018-03-01T10:00:12.203Z,999.55
2018-03-01T10:01:12.200Z,999.61
2018-03-01T10:02:33.188Z,999.53
2018-03-01T10:03:12.178Z,999.57
2018-03-01T10:04:12.160Z,999.49
2018-03-01T10:05:12.122Z,999.54
2018-03-01T10:06:12.135Z,999.53
2018-03-01T10:07:12.130Z,999.52
2018-03-01T10:08:33.115Z,999.43
2018-03-01T10:09:12.071Z,999.42
2018-03-01T10:10:12.084Z,999.42
2018-03-01T10:11:12.061Z,999.41
2018-03-01T10:12:12.051Z,999.44
2018-03-01T10:13:12.047Z,999.44
2018-03-01T10:14:33.042Z,999.39
2018-03-01T10:15:12.019Z,999.39
2018-03-01T10:16:12.011Z,999.41
2018-03-01T10:17:11.998Z,999.34
2018-03-01T10:18:11.982Z,999.29
2018-03-01T10:19:12.656Z,999.24
2018-03-01T10:20:32.952Z,999.14
2018-03-01T10:21:11.943Z,999.22
2018-03-01T10:22:11.925Z,999.26
2018-03-01T10:23:11.908Z,999.21
2018-03-01T10:24:11.895Z,999.24
2018-03-01T10:25:11.892Z,999.27
2018-03-01T10:26:32.880Z,999.31
2018-03-01T10:27:11.852Z,999.34
2018-03-01T10:28:11.872Z,999.34
2018-03-01T10:29:11.833Z,999.29
2018-03-01T10:30:12.699Z,999.37
2018-03-01T10:31:11.817Z,999.24
2018-03-01T10:32:32.808Z,999.23
2018-03-01T10:33:11.825Z,999.35
2018-03-01T10:34:11.800Z,999.28
2018-03-01T10:35:11.754Z,999.18
2018-03-01T10:36:11.754Z,999.24
2018-03-01T10:37:11.740Z,999.16
2018-03-01T10:38:32.734Z,999.11
2018-03-01T10:39:11.710Z,999.15
2018-03-01T10:40:11.713Z,999.12
2018-03-01T10:41:11.691Z,999.02
2018-03-01T10:42:11.674Z,999.05
2018-03-01T10:43:11.657Z,998.96
2018-03-01T10:44:33.566Z,999.03
2018-03-01T10:45:11.635Z,999.06
2018-03-01T10:46:11.640Z,999.03
2018-03-01T10:47:11.626Z,999.00
2018-03-01T10:48:11.625Z,999.03
2018-03-01T10:49:11.567Z,999.01
2018-03-01T10:50:32.594Z,999.01
2018-03-01T10:51:11.565Z,998.99
2018-03-01T10:52:11.555Z,998.91
2018-03-01T10:53:12.920Z,998.91
2018-03-01T10:54:11.528Z,998.86
2018-03-01T10:55:11.507Z,998.82
2018-03-01T10:56:32.498Z,998.83
2018-03-01T10:57:11.483Z,998.84
2018-03-01T10:58:11.481Z,998.79
2018-03-01T10:59:11.465Z,998.81
2018-03-01T11:00:11.497Z,998.77
2018-03-01T11:01:11.453Z,998.75
2018-03-01T11:02:32.428Z,998.79
2018-03-01T11:03:11.410Z,998.81
2018-03-01T11:04:11.410Z,998.82
2018-03-01T11:05:11.392Z,998.78
2018-03-01T11:06:11.359Z,998.75
2018-03-01T11:07:11.360Z,998.76
2018-03-01T11:08:32.346Z,998.75
2018-03-01T11:09:11.341Z,998.73
2018-03-01T11:10:11.326Z,998.70
2018-03-01T11:11:11.324Z,998.66
2018-03-01T11:12:11.294Z,998.68
2018-03-01T11:13:11.297Z,998.64
2018-03-01T11:14:32.273Z,998.59
2018-03-01T11:15:11.272Z,998.65
2018-03-01T11:16:11.280Z,998.56
2018-03-01T11:17:12.087Z,998.54
2018-03-01T11:18:11.237Z,998.54
2018-03-01T11:19:11.208Z,998.52
2018-03-01T11:20:32.218Z,998.52
2018-03-01T11:21:11.193Z,998.46
2018-03-01T11:22:11.185Z,998.48
2018-03-01T11:23:11.197Z,998.50
2018-03-01T11:24:11.158Z,998.51
2018-03-01T11:25:11.164Z,998.45
2018-03-01T11:26:32.141Z,998.50
2018-03-01T11:27:11.113Z,998.44
2018-03-01T11:28:11.115Z,998.43
2018-03-01T11:29:11.144Z,998.45
2018-03-01T11:30:12.563Z,998.39
2018-03-01T11:31:11.083Z,998.41
2018-03-01T11:32:32.058Z,998.35
2018-03-01T11:33:11.049Z,998.41
2018-03-01T11:34:11.043Z,998.44
2018-03-01T11:35:11.020Z,998.49
2018-03-01T11:36:11.027Z,998.45
2018-03-01T11:37:10.993Z,998.50
2018-03-01T11:38:32.483Z,998.53
2018-03-01T11:39:10.979Z,998.50
2018-03-01T11:40:10.970Z,998.46
2018-03-01T11:41:10.958Z,998.38
2018-03-01T11:42:10.955Z,998.25
2018-03-01T11:43:10.944Z,998.27
2018-03-01T11:44:31.924Z,998.24
2018-03-01T11:45:10.914Z,998.17
2018-03-01T11:46:10.903Z,998.14
2018-03-01T11:47:10.903Z,998.14
2018-03-01T11:48:10.890Z,998.15
2018-03-01T11:49:11.706Z,998.09
2018-03-01T11:50:31.847Z,998.04
2018-03-01T11:51:10.846Z,997.97
2018-03-01T11:52:10.843Z,998.05
2018-03-01T11:53:12.920Z,998.02
2018-03-01T11:54:10.805Z,998.05
2018-03-01T11:55:10.802Z,998.02
2018-03-01T11:56:31.796Z,997.97
2018-03-01T11:57:10.771Z,998.00
2018-03-01T11:58:10.786Z,997.96
2018-03-01T11:59:10.756Z,997.86
2018-03-01T12:00:10.752Z,997.82
2018-03-01T12:01:10.731Z,997.80
2018-03-01T12:02:31.736Z,997.79
2018-03-01T12:03:11.230Z,997.74
2018-03-01T12:04:10.714Z,997.71
2018-03-01T12:05:11.620Z,997.63
2018-03-01T12:06:10.693Z,997.60
2018-03-01T12:07:10.666Z,997.62
2018-03-01T12:08:31.677Z,997.57
2018-03-01T12:09:10.654Z,997.56
2018-03-01T12:10:10.653Z,997.49